createdAt,value
2022-10-11T00:00:34.696Z,101034.22
2022-10-11T00:03:40.999Z,101022.30
2022-10-11T00:06:46.844Z,101015.47
2022-10-11T00:09:53.222Z,101017.67
2022-10-11T00:13:02.309Z,101022.30
2022-10-11T00:16:08.762Z,101021.58
2022-10-11T00:19:14.745Z,101009.78
2022-10-11T00:22:21.183Z,101014.91
2022-10-11T00:25:27.718Z,101015.05
2022-10-11T00:28:32.839Z,101025.45
2022-10-11T00:31:38.132Z,101025.11
2022-10-11T00:34:44.370Z,101017.94
2022-10-11T00:37:51.191Z,101017.23
2022-10-11T00:40:57.535Z,101023.71
2022-10-11T00:44:32.535Z,101026.06
2022-10-11T00:47:39.931Z,101018.40
2022-10-11T00:50:48.129Z,101015.67
2022-10-11T00:53:54.860Z,101018.02
2022-10-11T00:57:04.222Z,101019.05
2022-10-11T01:00:10.220Z,101016.09
2022-10-11T01:03:16.502Z,101028.53
2022-10-11T01:06:22.061Z,101023.37
2022-10-11T01:09:28.198Z,101025.77
2022-10-11T01:12:36.338Z,101025.69
2022-10-11T01:16:02.679Z,101021.90
2022-10-11T01:19:51.393Z,101028.45
2022-10-11T01:23:10.862Z,101027.92
2022-10-11T01:26:42.490Z,101031.45
2022-10-11T01:30:19.573Z,101028.45
2022-10-11T01:33:34.668Z,101037.28
2022-10-11T01:36:54.193Z,101038.07
2022-10-11T01:40:23.903Z,101038.90
2022-10-11T01:43:30.494Z,101053.83
2022-10-11T01:46:36.735Z,101032.73
2022-10-11T01:49:42.946Z,101034.89
2022-10-11T01:52:50.169Z,101048.69
2022-10-11T01:56:08.217Z,101051.86
2022-10-11T01:59:43.981Z,101048.06
2022-10-11T02:03:20.846Z,101039.79
2022-10-11T02:06:36.944Z,101052.02
2022-10-11T02:09:52.214Z,101051.23
2022-10-11T02:13:23.694Z,101049.75
2022-10-11T02:16:32.359Z,101043.86
2022-10-11T02:19:42.737Z,101046.88
2022-10-11T02:22:51.567Z,101046.69
2022-10-11T02:25:57.823Z,101053.79
2022-10-11T02:29:04.140Z,101048.10
2022-10-11T02:32:09.536Z,101053.01
2022-10-11T02:35:17.391Z,101050.42
2022-10-11T02:38:54.421Z,101062.25
2022-10-11T02:42:00.403Z,101058.08
2022-10-11T02:45:10.473Z,101057.00
2022-10-11T02:48:18.342Z,101053.26
2022-10-11T02:51:29.672Z,101053.34
2022-10-11T02:54:35.985Z,101063.03
2022-10-11T02:57:43.331Z,101070.13
2022-10-11T03:00:50.051Z,101073.77
2022-10-11T03:03:58.604Z,101077.41
2022-10-11T03:07:05.156Z,101076.34
2022-10-11T03:10:11.153Z,101071.90
2022-10-11T03:13:18.674Z,101075.32
2022-10-11T03:16:24.715Z,101070.16
2022-10-11T03:19:30.905Z,101070.68
2022-10-11T03:22:36.369Z,101072.39
2022-10-11T03:25:42.780Z,101082.28
2022-10-11T03:28:49.282Z,101081.20
2022-10-11T03:31:55.005Z,101079.25
2022-10-11T03:35:01.577Z,101076.66
2022-10-11T03:38:11.117Z,101073.38
2022-10-11T03:41:14.252Z,101078.23
2022-10-11T03:44:20.217Z,101075.56
2022-10-11T03:47:27.454Z,101081.29
2022-10-11T03:50:33.262Z,101087.50
2022-10-11T03:53:39.250Z,101090.16
2022-10-11T03:56:48.118Z,101097.25
2022-10-11T03:59:55.857Z,101093.20
2022-10-11T04:03:03.992Z,101094.83
2022-10-11T04:06:10.987Z,101095.84
2022-10-11T04:09:18.648Z,101097.63
2022-10-11T04:12:25.540Z,101094.93
2022-10-11T04:15:32.267Z,101104.25
2022-10-11T04:18:38.238Z,101095.48
2022-10-11T04:21:43.929Z,101102.08
2022-10-11T04:24:51.232Z,101104.20
2022-10-11T04:27:57.819Z,101106.81
2022-10-11T04:31:03.600Z,101104.50
2022-10-11T04:34:10.006Z,101117.30
2022-10-11T04:37:15.072Z,101107.92
2022-10-11T04:40:21.489Z,101117.23
2022-10-11T04:43:27.776Z,101116.50
2022-10-11T04:46:33.023Z,101121.59
2022-10-11T04:49:39.475Z,101120.49
2022-10-11T04:52:45.707Z,101122.13
2022-10-11T04:55:52.348Z,101119.67
2022-10-11T04:59:00.988Z,101128.80
2022-10-11T05:02:08.609Z,101124.78
2022-10-11T05:05:15.827Z,101126.76
2022-10-11T05:08:23.495Z,101127.52
2022-10-11T05:11:30.674Z,101135.58
2022-10-11T05:14:35.953Z,101131.99
2022-10-11T05:17:42.028Z,101136.20
2022-10-11T05:20:47.824Z,101135.58
2022-10-11T05:23:53.209Z,101141.73
2022-10-11T05:27:03.027Z,101140.14
2022-10-11T05:30:05.305Z,101143.55
2022-10-11T05:33:11.458Z,101144.51
2022-10-11T05:36:18.167Z,101138.92
2022-10-11T05:39:23.249Z,101141.94
2022-10-11T05:42:29.444Z,101146.88
2022-10-11T05:45:36.862Z,101149.41
2022-10-11T05:48:43.303Z,101151.09
2022-10-11T05:51:49.704Z,101153.74
2022-10-11T05:54:56.079Z,101152.67
2022-10-11T05:58:03.029Z,101163.23
2022-10-11T06:01:10.113Z,101157.38
2022-10-11T06:04:15.708Z,101148.58
2022-10-11T06:07:21.768Z,101155.22
2022-10-11T06:10:28.186Z,101156.48
2022-10-11T06:13:36.408Z,101157.35
2022-10-11T06:16:42.053Z,101178.55
2022-10-11T06:19:47.882Z,101151.53
2022-10-11T06:22:54.507Z,101145.75
2022-10-11T06:26:16.931Z,101155.80
2022-10-11T06:29:22.533Z,101141.70
2022-10-11T06:32:29.947Z,101147.63
2022-10-11T06:35:37.008Z,101138.58
2022-10-11T06:38:45.376Z,101143.69
2022-10-11T06:41:51.676Z,101142.17
2022-10-11T06:44:59.538Z,101139.93
2022-10-11T06:48:06.053Z,101142.07
2022-10-11T06:51:14.993Z,101148.25
2022-10-11T06:54:22.352Z,101142.88
2022-10-11T06:57:30.319Z,101143.85
2022-10-11T07:00:37.214Z,101146.52
2022-10-11T07:03:43.559Z,101147.50
2022-10-11T07:06:53.183Z,101157.42
2022-10-11T07:09:59.924Z,101154.22
2022-10-11T07:13:09.926Z,101151.61
2022-10-11T07:16:18.774Z,101158.25
2022-10-11T07:19:25.787Z,101161.52
2022-10-11T07:22:34.411Z,101165.81
2022-10-11T07:25:43.052Z,101163.23
2022-10-11T07:28:48.360Z,101168.13
2022-10-11T07:31:57.872Z,101161.90
2022-10-11T07:35:04.099Z,101152.86
2022-10-11T07:38:11.156Z,101144.33
2022-10-11T07:41:19.913Z,101148.84
2022-10-11T07:44:26.458Z,101147.22
2022-10-11T07:47:31.662Z,101140.87
2022-10-11T07:50:37.566Z,101145.27
2022-10-11T07:53:45.161Z,101145.37
2022-10-11T07:56:51.301Z,101145.56
2022-10-11T07:59:57.508Z,101135.84
2022-10-11T08:03:06.151Z,101145.33
2022-10-11T08:06:18.540Z,101139.59
2022-10-11T08:09:25.249Z,101141.46
2022-10-11T08:12:31.504Z,101149.36
2022-10-11T08:15:38.310Z,101139.30
2022-10-11T08:18:46.393Z,101136.66
2022-10-11T08:21:52.627Z,101135.23
2022-10-11T08:25:00.084Z,101131.78
2022-10-11T08:28:04.887Z,101143.59
2022-10-11T08:31:10.824Z,101129.52
2022-10-11T08:34:17.316Z,101133.08
2022-10-11T08:37:24.993Z,101141.61
2022-10-11T08:40:35.434Z,101127.83
2022-10-11T08:44:00.200Z,101129.66
2022-10-11T08:47:13.599Z,101133.18
2022-10-11T08:50:22.528Z,101127.45
2022-10-11T08:54:07.554Z,101127.17
2022-10-11T08:57:12.009Z,101129.18
2022-10-11T09:00:26.541Z,101133.72
2022-10-11T09:03:54.142Z,101121.62
2022-10-11T09:07:34.427Z,101126.31
2022-10-11T09:11:05.239Z,101123.77
2022-10-11T09:14:54.845Z,101142.97
2022-10-11T09:18:09.871Z,101120.69
2022-10-11T09:21:40.900Z,101115.25
2022-10-11T09:25:18.082Z,101123.51
2022-10-11T09:28:49.838Z,101111.85
2022-10-11T09:32:03.159Z,101109.62
2022-10-11T09:35:35.892Z,101111.55
2022-10-11T09:39:06.793Z,101117.05
2022-10-11T09:42:18.124Z,101107.43
2022-10-11T09:45:36.502Z,101100.40
2022-10-11T09:48:48.320Z,101106.23
2022-10-11T09:51:58.793Z,101095.77
2022-10-11T09:55:11.195Z,101099.03
2022-10-11T09:58:18.972Z,101101.74
2022-10-11T10:01:27.149Z,101094.34
2022-10-11T10:04:36.175Z,101096.21
2022-10-11T10:07:43.075Z,101092.19
2022-10-11T10:10:59.550Z,101092.66
2022-10-11T10:14:10.133Z,101092.74
2022-10-11T10:17:21.678Z,101091.33
2022-10-11T10:20:40.330Z,101092.70
2022-10-11T10:23:49.407Z,101083.38
2022-10-11T10:26:56.411Z,101082.47
2022-10-11T10:30:29.763Z,101074.34
2022-10-11T10:33:33.634Z,101074.11
2022-10-11T10:36:50.034Z,101079.37
2022-10-11T10:40:07.116Z,101086.94
2022-10-11T10:43:13.971Z,101069.36
2022-10-11T10:47:03.401Z,101065.34
2022-10-11T10:50:33.348Z,101067.48
2022-10-11T10:53:58.729Z,101065.15
2022-10-11T10:57:10.880Z,101071.41
2022-10-11T11:00:33.538Z,101068.84
2022-10-11T11:04:02.667Z,101063.70
2022-10-11T11:07:34.833Z,101062.44
2022-10-11T11:11:02.935Z,101055.88
2022-10-11T11:14:19.808Z,101053.11
2022-10-11T11:17:52.405Z,101057.97
2022-10-11T11:21:28.960Z,101062.34
2022-10-11T11:25:02.980Z,101087.35
2022-10-11T11:28:19.651Z,101066.56
2022-10-11T11:31:58.242Z,101070.22
2022-10-11T11:35:18.378Z,101071.08
2022-10-11T11:38:38.145Z,101072.26
2022-10-11T11:41:55.408Z,101059.92
2022-10-11T11:45:05.576Z,101072.36
2022-10-11T11:48:18.678Z,101058.44
2022-10-11T11:51:35.453Z,101073.12
2022-10-11T11:55:07.182Z,101062.55
2022-10-11T11:58:52.088Z,101069.17
2022-10-11T12:02:12.967Z,101059.19
2022-10-11T12:05:22.981Z,101064.95
2022-10-11T12:08:42.623Z,101067.63
2022-10-11T12:11:58.154Z,101063.69
2022-10-11T12:15:06.192Z,101058.16
2022-10-11T12:18:18.359Z,101055.27
2022-10-11T12:21:52.958Z,101056.16
2022-10-11T12:25:25.397Z,101049.89
2022-10-11T12:28:58.241Z,101058.65
2022-10-11T12:32:17.753Z,101066.88
2022-10-11T12:35:50.481Z,101059.63
2022-10-11T12:38:57.633Z,101055.55
2022-10-11T12:42:10.803Z,101081.80
2022-10-11T12:45:30.239Z,101072.39
2022-10-11T12:49:02.804Z,101072.39
2022-10-11T12:52:18.198Z,101064.95
2022-10-11T12:55:38.565Z,101087.52
2022-10-11T12:58:53.874Z,101082.99
2022-10-11T13:02:13.001Z,101076.71
2022-10-11T13:05:44.744Z,101084.16
2022-10-11T13:08:52.631Z,101075.81
2022-10-11T13:12:08.524Z,101080.45
2022-10-11T13:15:20.766Z,101084.44
2022-10-11T13:18:30.933Z,101083.94
2022-10-11T13:21:48.181Z,101084.06
2022-10-11T13:24:54.485Z,101078.66
2022-10-11T13:28:00.053Z,101084.97
2022-10-11T13:31:12.661Z,101083.50
2022-10-11T13:34:22.397Z,101081.73
2022-10-11T13:37:33.522Z,101093.13
2022-10-11T13:40:39.763Z,101085.47
2022-10-11T13:43:45.730Z,101091.11
2022-10-11T13:46:53.893Z,101086.75
2022-10-11T13:50:02.271Z,101088.95
2022-10-11T13:53:15.630Z,101092.48
2022-10-11T13:56:21.648Z,101090.82
2022-10-11T13:59:38.121Z,101094.45
2022-10-11T14:02:44.571Z,101102.95
2022-10-11T14:05:58.869Z,101098.46
2022-10-11T14:09:10.743Z,101099.73
2022-10-11T14:12:52.859Z,101100.95
2022-10-11T14:15:58.976Z,101092.88
2022-10-11T14:19:17.461Z,101098.69
2022-10-11T14:22:30.011Z,101095.73
2022-10-11T14:25:35.559Z,101103.02
2022-10-11T14:28:41.206Z,101100.16
2022-10-11T14:31:48.280Z,101105.02
2022-10-11T14:34:55.168Z,101106.19
2022-10-11T14:38:01.656Z,101113.54
2022-10-11T14:41:07.305Z,101115.88
2022-10-11T14:44:14.215Z,101118.95
2022-10-11T14:47:20.891Z,101120.45
2022-10-11T14:50:42.967Z,101132.59
2022-10-11T14:53:51.103Z,101132.02
2022-10-11T14:56:56.861Z,101139.84
2022-10-11T15:00:04.212Z,101135.61
2022-10-11T15:03:10.379Z,101143.91
2022-10-11T15:06:16.341Z,101145.36
2022-10-11T15:09:25.102Z,101145.78
2022-10-11T15:12:30.127Z,101150.29
2022-10-11T15:15:40.787Z,101152.90
2022-10-11T15:18:47.395Z,101156.56
2022-10-11T15:21:54.972Z,101158.65
2022-10-11T15:25:00.621Z,101169.13
2022-10-11T15:28:07.756Z,101170.45
2022-10-11T15:31:15.097Z,101174.76
2022-10-11T15:34:22.119Z,101175.42
2022-10-11T15:37:27.742Z,101179.21
2022-10-11T15:40:40.437Z,101182.61
2022-10-11T15:43:46.226Z,101190.13
2022-10-11T15:46:52.994Z,101191.28
2022-10-11T15:49:52.692Z,101192.46
2022-10-11T15:52:58.429Z,101197.75
2022-10-11T15:56:07.809Z,101209.36
2022-10-11T15:59:14.163Z,101204.66
2022-10-11T16:02:20.957Z,101208.55
2022-10-11T16:05:27.825Z,101212.75
2022-10-11T16:08:32.916Z,101212.31
2022-10-11T16:11:39.826Z,101209.28
2022-10-11T16:14:47.692Z,101211.33
2022-10-11T16:17:54.325Z,101220.37
2022-10-11T16:21:01.683Z,101219.22
2022-10-11T16:24:08.118Z,101227.30
2022-10-11T16:27:17.961Z,101221.02
2022-10-11T16:30:21.258Z,101227.27
2022-10-11T16:33:26.750Z,101230.13
2022-10-11T16:36:45.173Z,101227.64
2022-10-11T16:39:52.051Z,101232.67
2022-10-11T16:42:58.357Z,101236.58
2022-10-11T16:46:12.453Z,101237.56
2022-10-11T16:49:17.969Z,101240.37
2022-10-11T16:52:24.352Z,101243.08
2022-10-11T16:55:31.202Z,101240.77
2022-10-11T16:58:36.805Z,101241.03
2022-10-11T17:01:43.547Z,101242.47
2022-10-11T17:04:50.648Z,101236.05
2022-10-11T17:07:56.364Z,101242.61
2022-10-11T17:11:04.806Z,101241.13
2022-10-11T17:14:11.944Z,101239.33
2022-10-11T17:17:19.086Z,101235.98
2022-10-11T17:20:26.162Z,101239.31
2022-10-11T17:23:32.754Z,101240.89
2022-10-11T17:26:40.352Z,101233.63
2022-10-11T17:29:49.973Z,101239.05
2022-10-11T17:32:55.630Z,101245.30
2022-10-11T17:36:03.782Z,101248.47
2022-10-11T17:39:10.620Z,101246.52
2022-10-11T17:42:15.393Z,101249.20
2022-10-11T17:45:23.664Z,101240.77
2022-10-11T17:48:30.494Z,101245.80
2022-10-11T17:51:36.804Z,101247.11
2022-10-11T17:54:42.988Z,101248.39
2022-10-11T17:57:50.616Z,101250.57
2022-10-11T18:00:58.162Z,101248.24
2022-10-11T18:04:19.960Z,101249.90
2022-10-11T18:07:27.156Z,101254.28
2022-10-11T18:10:33.920Z,101245.30
2022-10-11T18:13:39.748Z,101251.97
2022-10-11T18:16:47.879Z,101255.77
2022-10-11T18:19:56.567Z,101246.83
2022-10-11T18:23:03.519Z,101252.41
2022-10-11T18:26:10.210Z,101255.50
2022-10-11T18:29:20.381Z,101255.47
2022-10-11T18:32:27.523Z,101262.04
2022-10-11T18:35:34.866Z,101260.91
2022-10-11T18:38:40.700Z,101256.53
2022-10-11T18:41:47.463Z,101253.14
2022-10-11T18:44:53.565Z,101249.73
2022-10-11T18:47:58.965Z,101253.00
2022-10-11T18:51:05.190Z,101257.50
2022-10-11T18:54:16.885Z,101258.01
2022-10-11T18:57:22.677Z,101259.51
2022-10-11T19:00:40.765Z,101261.14
2022-10-11T19:03:42.285Z,101261.41
2022-10-11T19:06:50.906Z,101260.59
2022-10-11T19:09:56.599Z,101253.23
2022-10-11T19:13:02.529Z,101263.53
2022-10-11T19:16:08.781Z,101270.78
2022-10-11T19:19:15.996Z,101262.66
2022-10-11T19:22:22.889Z,101266.05
2022-10-11T19:25:28.697Z,101266.09
2022-10-11T19:28:34.820Z,101270.92
2022-10-11T19:31:40.332Z,101273.06
2022-10-11T19:34:46.164Z,101275.06
2022-10-11T19:37:54.269Z,101274.34
2022-10-11T19:41:01.282Z,101277.19
2022-10-11T19:44:08.309Z,101280.42
2022-10-11T19:47:14.087Z,101279.57
2022-10-11T19:50:22.725Z,101279.33
2022-10-11T19:53:29.550Z,101275.36
2022-10-11T19:56:40.012Z,101279.59
2022-10-11T19:59:46.944Z,101277.70
2022-10-11T20:02:47.449Z,101272.13
2022-10-11T20:05:40.007Z,101276.45
2022-10-11T20:08:45.859Z,101275.59
2022-10-11T20:11:52.304Z,101270.41
2022-10-11T20:14:58.780Z,101276.09
2022-10-11T20:18:03.728Z,101286.45
2022-10-11T20:21:15.791Z,101286.67
2022-10-11T20:24:24.641Z,101289.00
2022-10-11T20:27:30.497Z,101291.09
2022-10-11T20:30:39.498Z,101291.30
2022-10-11T20:33:45.461Z,101284.88
2022-10-11T20:36:51.951Z,101289.44
2022-10-11T20:39:57.945Z,101292.52
2022-10-11T20:43:02.658Z,101294.98
2022-10-11T20:46:23.968Z,101289.89
2022-10-11T20:49:30.725Z,101285.81
2022-10-11T20:52:37.093Z,101294.44
2022-10-11T20:55:43.005Z,101293.44
2022-10-11T20:58:48.288Z,101290.05
2022-10-11T21:01:56.055Z,101299.53
2022-10-11T21:05:02.946Z,101292.70
2022-10-11T21:08:09.954Z,101299.48
2022-10-11T21:11:16.950Z,101293.89
2022-10-11T21:14:22.506Z,101298.20
2022-10-11T21:17:30.609Z,101298.79
2022-10-11T21:20:37.584Z,101295.35
2022-10-11T21:23:45.540Z,101286.09
2022-10-11T21:26:55.839Z,101298.50
2022-10-11T21:30:00.243Z,101297.38
2022-10-11T21:33:05.989Z,101296.13
2022-10-11T21:36:11.767Z,101291.06
2022-10-11T21:39:20.291Z,101295.11
2022-10-11T21:42:29.512Z,101293.47
2022-10-11T21:45:34.504Z,101296.77
2022-10-11T21:48:39.456Z,101293.69
2022-10-11T21:51:45.550Z,101288.45
2022-10-11T21:54:51.860Z,101292.02
2022-10-11T21:57:58.899Z,101292.61
2022-10-11T22:01:06.533Z,101296.39
2022-10-11T22:04:14.436Z,101298.60
2022-10-11T22:07:19.384Z,101302.27
2022-10-11T22:10:25.392Z,101305.20
2022-10-11T22:13:32.628Z,101300.48
2022-10-11T22:16:39.522Z,101310.48
2022-10-11T22:19:47.995Z,101307.38
2022-10-11T22:22:54.194Z,101307.01
2022-10-11T22:26:00.528Z,101319.90
2022-10-11T22:29:07.689Z,101319.13
2022-10-11T22:32:14.599Z,101315.30
2022-10-11T22:35:21.762Z,101320.56
2022-10-11T22:38:28.898Z,101314.98
2022-10-11T22:41:34.508Z,101318.13
2022-10-11T22:44:41.011Z,101320.41
2022-10-11T22:47:46.318Z,101327.91
2022-10-11T22:50:51.883Z,101323.55
2022-10-11T22:53:58.927Z,101326.48
2022-10-11T22:57:04.308Z,101324.76
2022-10-11T23:00:12.085Z,101321.76
2022-10-11T23:03:19.657Z,101318.50
2022-10-11T23:06:26.274Z,101327.24
2022-10-11T23:09:34.573Z,101323.11
2022-10-11T23:12:40.082Z,101333.27
2022-10-11T23:15:46.085Z,101318.13
2022-10-11T23:18:52.498Z,101329.65
2022-10-11T23:21:58.005Z,101334.80
2022-10-11T23:25:03.666Z,101332.57
2022-10-11T23:28:10.250Z,101333.88
2022-10-11T23:31:23.798Z,101334.67
2022-10-11T23:34:30.135Z,101324.66
2022-10-11T23:37:36.683Z,101338.09
2022-10-11T23:40:43.723Z,101336.73
2022-10-11T23:43:49.641Z,101332.05
2022-10-11T23:46:55.358Z,101334.36
2022-10-11T23:50:01.408Z,101335.13
2022-10-11T23:53:07.926Z,101333.77
2022-10-11T23:56:14.022Z,101345.17
2022-10-11T23:59:22.513Z,101342.98
